createdAt,value
2023-05-10T00:01:27.090Z,2.75
2023-05-10T00:03:55.071Z,2.80
2023-05-10T00:06:23.063Z,2.95
2023-05-10T00:08:51.000Z,3.10
2023-05-10T00:11:22.967Z,2.70
2023-05-10T00:13:51.369Z,2.88
2023-05-10T00:16:19.317Z,3.00
2023-05-10T00:18:47.240Z,2.95
2023-05-10T00:21:15.134Z,2.67
2023-05-10T00:23:43.069Z,2.65
2023-05-10T00:26:10.958Z,3.10
2023-05-10T00:28:40.872Z,2.90
2023-05-10T00:31:08.764Z,2.90
2023-05-10T00:33:36.751Z,3.20
2023-05-10T00:36:05.122Z,3.15
2023-05-10T00:38:33.054Z,3.60
2023-05-10T00:41:00.931Z,3.55
2023-05-10T00:43:32.239Z,3.03
2023-05-10T00:46:01.560Z,2.78
2023-05-10T00:48:30.830Z,3.25
2023-05-10T00:50:59.634Z,3.10
2023-05-10T00:53:27.861Z,3.10
2023-05-10T00:55:56.031Z,3.17
2023-05-10T00:58:24.911Z,3.00
2023-05-10T01:00:53.276Z,3.00
2023-05-10T01:03:23.225Z,3.25
2023-05-10T01:05:51.159Z,2.85
2023-05-10T01:08:19.942Z,3.38
2023-05-10T01:10:50.034Z,3.33
2023-05-10T01:13:21.236Z,3.22
2023-05-10T01:15:49.355Z,3.00
2023-05-10T01:18:17.927Z,3.20
2023-05-10T01:20:50.843Z,3.30
2023-05-10T01:23:38.128Z,3.10
2023-05-10T01:26:50.049Z,3.38
2023-05-10T01:30:14.072Z,3.13
2023-05-10T01:32:48.109Z,3.42
2023-05-10T01:37:49.325Z,2.88
2023-05-10T01:40:22.474Z,3.88
2023-05-10T01:42:54.361Z,4.00
2023-05-10T01:45:28.440Z,3.60
2023-05-10T01:48:04.010Z,3.00
2023-05-10T01:50:33.130Z,3.13
2023-05-10T01:53:03.333Z,3.60
2023-05-10T01:55:34.451Z,3.40
2023-05-10T01:58:06.148Z,3.33
2023-05-10T02:00:34.656Z,3.50
2023-05-10T02:03:07.870Z,3.47
2023-05-10T02:05:36.517Z,4.00
2023-05-10T02:08:05.464Z,3.55
2023-05-10T02:10:34.601Z,3.53
2023-05-10T02:13:04.587Z,3.50
2023-05-10T02:15:33.304Z,3.40
2023-05-10T02:18:03.554Z,3.35
2023-05-10T02:20:33.702Z,3.63
2023-05-10T02:23:02.234Z,3.50
2023-05-10T02:25:31.832Z,3.40
2023-05-10T02:28:00.322Z,3.13
2023-05-10T02:30:28.385Z,4.18
2023-05-10T02:32:56.747Z,3.72
2023-05-10T02:35:28.383Z,2.90
2023-05-10T02:37:56.594Z,3.70
2023-05-10T02:40:26.150Z,3.22
2023-05-10T02:42:57.376Z,3.05
2023-05-10T02:45:29.064Z,3.58
2023-05-10T02:47:58.343Z,2.80
2023-05-10T02:50:29.958Z,3.40
2023-05-10T02:53:02.846Z,3.78
2023-05-10T02:55:34.824Z,3.13
2023-05-10T02:58:03.824Z,3.28
2023-05-10T03:00:31.909Z,3.60
2023-05-10T03:03:00.135Z,3.60
2023-05-10T03:05:30.437Z,4.07
2023-05-10T03:10:33.173Z,3.67
2023-05-10T03:13:09.732Z,3.30
2023-05-10T03:15:44.845Z,4.10
2023-05-10T03:18:15.243Z,3.85
2023-05-10T03:20:48.447Z,3.50
2023-05-10T03:23:31.782Z,4.18
2023-05-10T03:26:00.202Z,3.17
2023-05-10T03:28:29.096Z,4.38
2023-05-10T03:30:57.652Z,4.00
2023-05-10T03:33:26.015Z,3.80
2023-05-10T03:35:56.005Z,3.97
2023-05-10T03:38:23.980Z,3.63
2023-05-10T03:40:51.952Z,3.60
2023-05-10T03:43:19.937Z,4.03
2023-05-10T03:45:47.905Z,3.60
2023-05-10T03:48:18.417Z,3.20
2023-05-10T03:50:49.125Z,3.80
2023-05-10T03:53:18.502Z,3.80
2023-05-10T03:55:47.559Z,3.85
2023-05-10T03:58:15.569Z,4.18
2023-05-10T04:00:46.064Z,4.05
2023-05-10T04:03:15.510Z,3.83
2023-05-10T04:05:43.871Z,3.60
2023-05-10T04:08:14.062Z,2.92
2023-05-10T04:10:43.411Z,4.20
2023-05-10T04:13:12.195Z,4.07
2023-05-10T04:15:40.229Z,3.75
2023-05-10T04:18:09.681Z,4.18
2023-05-10T04:20:37.596Z,2.58
2023-05-10T04:23:05.516Z,3.70
2023-05-10T04:25:36.577Z,4.00
2023-05-10T04:28:07.081Z,2.95
2023-05-10T04:30:36.081Z,3.97
2023-05-10T04:33:06.980Z,3.42
2023-05-10T04:35:35.169Z,3.88
2023-05-10T04:38:03.770Z,3.50
2023-05-10T04:40:34.009Z,3.80
2023-05-10T04:43:02.496Z,3.40
2023-05-10T04:45:34.424Z,3.75
2023-05-10T04:48:03.164Z,3.60
2023-05-10T04:50:34.098Z,4.03
2023-05-10T04:53:05.254Z,3.70
2023-05-10T04:55:35.752Z,4.18
2023-05-10T04:58:04.332Z,3.67
2023-05-10T05:00:36.097Z,3.55
2023-05-10T05:03:06.589Z,3.50
2023-05-10T05:05:37.123Z,3.88
2023-05-10T05:08:06.257Z,3.97
2023-05-10T05:10:34.718Z,3.80
2023-05-10T05:13:06.677Z,3.17
2023-05-10T05:15:36.294Z,3.65
2023-05-10T05:18:04.432Z,3.80
2023-05-10T05:20:34.291Z,3.13
2023-05-10T05:23:02.230Z,3.72
2023-05-10T05:25:30.148Z,3.60
2023-05-10T05:27:58.054Z,3.28
2023-05-10T05:30:25.916Z,4.13
2023-05-10T05:32:55.176Z,2.72
2023-05-10T05:35:23.445Z,3.72
2023-05-10T05:37:51.320Z,3.60
2023-05-10T05:40:19.212Z,3.40
2023-05-10T05:42:47.057Z,3.38
2023-05-10T05:45:15.604Z,3.95
2023-05-10T05:47:43.754Z,3.85
2023-05-10T05:50:13.478Z,3.75
2023-05-10T05:52:41.459Z,3.80
2023-05-10T05:55:09.794Z,3.00
2023-05-10T05:57:37.687Z,3.63
2023-05-10T06:00:07.107Z,3.70
2023-05-10T06:02:40.635Z,3.58
2023-05-10T06:05:09.506Z,2.28
2023-05-10T06:07:38.664Z,3.47
2023-05-10T06:10:07.991Z,3.20
2023-05-10T06:12:35.879Z,4.32
2023-05-10T06:15:04.244Z,3.67
2023-05-10T06:17:32.256Z,3.17
2023-05-10T06:20:00.217Z,3.30
2023-05-10T06:22:28.138Z,3.40
2023-05-10T06:24:57.601Z,3.50
2023-05-10T06:27:25.735Z,3.20
2023-05-10T06:30:02.019Z,2.50
2023-05-10T06:32:33.684Z,2.95
2023-05-10T06:35:03.960Z,3.33
2023-05-10T06:37:31.802Z,4.30
2023-05-10T06:40:01.579Z,2.70
2023-05-10T06:42:29.484Z,2.33
2023-05-10T06:44:57.404Z,3.28
2023-05-10T06:47:25.339Z,3.15
2023-05-10T06:49:53.286Z,3.28
2023-05-10T06:52:21.157Z,3.13
2023-05-10T06:54:49.347Z,3.00
2023-05-10T06:57:31.323Z,2.60
2023-05-10T07:00:00.222Z,3.03
2023-05-10T07:02:29.156Z,2.95
2023-05-10T07:04:58.424Z,3.08
2023-05-10T07:07:28.139Z,2.78
2023-05-10T07:09:57.576Z,2.97
2023-05-10T07:12:27.225Z,3.30
2023-05-10T07:14:55.218Z,3.00
2023-05-10T07:17:23.141Z,3.30
2023-05-10T07:19:51.396Z,3.10
2023-05-10T07:22:19.419Z,2.30
2023-05-10T07:24:47.757Z,3.03
2023-05-10T07:27:15.665Z,3.00
2023-05-10T07:29:44.887Z,3.35
2023-05-10T07:32:12.734Z,3.25
2023-05-10T07:34:40.859Z,3.45
2023-05-10T07:37:08.700Z,2.83
2023-05-10T07:39:36.547Z,2.90
2023-05-10T07:42:04.969Z,2.85
2023-05-10T07:44:32.815Z,2.80
2023-05-10T07:47:02.306Z,2.58
2023-05-10T07:49:30.187Z,2.70
2023-05-10T07:51:58.281Z,2.40
2023-05-10T07:54:26.182Z,2.92
2023-05-10T07:56:54.075Z,2.80
2023-05-10T07:59:21.901Z,3.08
2023-05-10T08:01:49.847Z,2.63
2023-05-10T08:04:19.091Z,3.15
2023-05-10T08:06:46.989Z,2.90
2023-05-10T08:09:15.473Z,3.05
2023-05-10T08:11:43.424Z,2.90
2023-05-10T08:14:11.235Z,3.05
2023-05-10T08:16:39.181Z,2.70
2023-05-10T08:19:07.450Z,2.53
2023-05-10T08:21:36.784Z,2.55
2023-05-10T08:24:04.956Z,1.95
2023-05-10T08:26:33.328Z,3.10
2023-05-10T08:29:01.160Z,2.58
2023-05-10T08:31:29.481Z,3.65
2023-05-10T08:33:57.432Z,3.17
2023-05-10T08:36:25.554Z,2.47
2023-05-10T08:38:56.188Z,2.90
2023-05-10T08:41:24.880Z,2.60
2023-05-10T08:43:53.190Z,2.17
2023-05-10T08:46:23.095Z,2.40
2023-05-10T08:48:52.789Z,2.83
2023-05-10T08:51:22.323Z,2.70
2023-05-10T08:53:50.334Z,2.20
2023-05-10T08:56:20.746Z,2.53
2023-05-10T08:58:49.955Z,2.13
2023-05-10T09:01:19.090Z,2.63
2023-05-10T09:03:48.412Z,2.60
2023-05-10T09:06:16.768Z,2.63
2023-05-10T09:08:45.482Z,2.47
2023-05-10T09:11:14.150Z,2.47
2023-05-10T09:13:44.422Z,2.50
2023-05-10T09:16:21.364Z,2.80
2023-05-10T09:18:50.637Z,2.40
2023-05-10T09:21:18.660Z,2.53
2023-05-10T09:23:48.653Z,3.00
2023-05-10T09:26:17.189Z,2.78
2023-05-10T09:28:57.134Z,2.33
2023-05-10T09:31:26.246Z,2.85
2023-05-10T09:33:54.923Z,2.50
2023-05-10T09:36:22.790Z,2.70
2023-05-10T09:39:22.581Z,2.50
2023-05-10T09:50:44.074Z,2.50
2023-05-10T09:53:17.616Z,2.90
2023-05-10T09:55:47.652Z,2.30
2023-05-10T09:58:16.126Z,2.72
2023-05-10T10:00:45.466Z,2.33
2023-05-10T10:03:19.047Z,2.67
2023-05-10T10:05:48.764Z,2.75
2023-05-10T10:08:18.217Z,2.33
2023-05-10T10:10:47.433Z,2.80
2023-05-10T10:13:15.400Z,2.28
2023-05-10T10:15:44.451Z,2.45
2023-05-10T10:18:15.537Z,2.30
2023-05-10T10:20:45.233Z,2.53
2023-05-10T10:23:14.186Z,2.40
2023-05-10T10:25:45.400Z,2.42
2023-05-10T10:28:22.715Z,2.08
2023-05-10T10:30:53.247Z,2.55
2023-05-10T10:33:36.793Z,2.00
2023-05-10T10:36:06.824Z,1.88
2023-05-10T10:38:40.273Z,2.13
2023-05-10T10:41:12.987Z,2.72
2023-05-10T10:46:16.465Z,2.00
2023-05-10T10:48:49.547Z,2.35
2023-05-10T10:51:19.040Z,1.75
2023-05-10T10:53:50.291Z,2.50
2023-05-10T10:56:25.252Z,2.17
2023-05-10T10:58:54.707Z,2.40
2023-05-10T11:01:22.993Z,2.25
2023-05-10T11:04:20.814Z,2.08
2023-05-10T11:06:50.133Z,1.88
2023-05-10T11:09:19.139Z,2.10
2023-05-10T11:11:56.098Z,1.88
2023-05-10T11:14:24.664Z,1.90
2023-05-10T11:16:53.020Z,2.00
2023-05-10T11:19:21.477Z,2.25
2023-05-10T11:21:51.862Z,1.98
2023-05-10T11:24:21.778Z,2.33
2023-05-10T11:26:52.168Z,2.10
2023-05-10T11:29:20.420Z,2.15
2023-05-10T11:31:49.573Z,2.10
2023-05-10T11:34:25.908Z,2.05
2023-05-10T11:36:55.965Z,2.30
2023-05-10T11:39:23.923Z,1.77
2023-05-10T11:41:51.866Z,1.92
2023-05-10T11:44:19.924Z,2.00
2023-05-10T11:46:48.166Z,2.22
2023-05-10T11:49:16.107Z,2.28
2023-05-10T11:51:44.631Z,2.30
2023-05-10T11:54:14.057Z,2.10
2023-05-10T11:56:43.167Z,2.00
2023-05-10T11:59:11.274Z,2.20
2023-05-10T12:01:39.267Z,1.95
2023-05-10T12:04:07.286Z,2.17
2023-05-10T12:06:39.783Z,2.03
2023-05-10T12:09:09.231Z,2.10
2023-05-10T12:11:44.193Z,2.42
2023-05-10T12:14:12.610Z,2.00
2023-05-10T12:16:40.810Z,2.05
2023-05-10T12:19:08.965Z,1.85
2023-05-10T12:21:36.976Z,1.92
2023-05-10T12:24:06.227Z,2.20
2023-05-10T12:26:34.312Z,1.83
2023-05-10T12:29:17.701Z,2.10
2023-05-10T12:31:53.955Z,2.33
2023-05-10T12:34:28.429Z,2.28
2023-05-10T12:36:56.788Z,2.30
2023-05-10T12:39:42.575Z,2.40
2023-05-10T12:42:10.589Z,1.90
2023-05-10T12:44:40.971Z,2.08
2023-05-10T12:47:09.031Z,1.90
2023-05-10T12:49:36.920Z,2.22
2023-05-10T12:52:05.037Z,2.10
2023-05-10T12:54:32.894Z,1.70
2023-05-10T12:57:00.766Z,2.10
2023-05-10T12:59:28.617Z,2.20
2023-05-10T13:01:59.335Z,3.60
2023-05-10T13:04:27.215Z,13.57
2023-05-10T13:06:57.141Z,9.38
2023-05-10T13:09:25.044Z,4.13
2023-05-10T13:11:54.474Z,3.33
2023-05-10T13:14:22.384Z,20.45
2023-05-10T13:16:50.380Z,3.67
2023-05-10T13:19:19.795Z,2.67
2023-05-10T13:21:47.701Z,1.98
2023-05-10T13:24:15.667Z,5.55
2023-05-10T13:26:43.712Z,2.38
2023-05-10T13:29:11.643Z,2.65
2023-05-10T13:31:39.639Z,2.22
2023-05-10T13:34:07.584Z,2.28
2023-05-10T13:36:37.103Z,2.10
2023-05-10T13:39:06.335Z,2.25
2023-05-10T13:41:34.450Z,2.45
2023-05-10T13:44:02.429Z,2.50
2023-05-10T13:46:31.265Z,2.30
2023-05-10T13:49:00.407Z,2.25
2023-05-10T13:51:28.368Z,2.20
2023-05-10T13:53:57.753Z,1.80
2023-05-10T13:56:25.642Z,2.13
2023-05-10T13:58:53.805Z,2.25
2023-05-10T14:01:21.736Z,2.40
2023-05-10T14:03:49.881Z,2.10
2023-05-10T14:06:18.307Z,2.40
2023-05-10T14:08:46.685Z,2.42
2023-05-10T14:11:16.299Z,2.85
2023-05-10T14:13:44.174Z,2.10
2023-05-10T14:16:12.610Z,2.38
2023-05-10T14:18:40.638Z,2.33
2023-05-10T14:21:08.516Z,1.70
2023-05-10T14:23:36.672Z,2.17
2023-05-10T14:26:04.929Z,2.17
2023-05-10T14:28:34.304Z,2.05
2023-05-10T14:31:02.584Z,2.10
2023-05-10T14:33:30.817Z,2.17
2023-05-10T14:35:58.805Z,2.20
2023-05-10T14:38:27.584Z,2.45
2023-05-10T14:40:55.507Z,2.13
2023-05-10T14:43:23.422Z,2.22
2023-05-10T14:45:55.941Z,2.20
2023-05-10T14:48:23.917Z,2.08
2023-05-10T14:50:53.514Z,1.52
2023-05-10T14:53:21.537Z,2.65
2023-05-10T14:55:49.409Z,2.10
2023-05-10T14:58:17.474Z,2.47
2023-05-10T15:00:45.564Z,2.15
2023-05-10T15:03:15.229Z,2.20
2023-05-10T15:05:43.565Z,2.20
2023-05-10T15:08:13.497Z,1.92
2023-05-10T15:10:41.428Z,2.28
2023-05-10T15:13:09.299Z,2.30
2023-05-10T15:15:37.519Z,2.22
2023-05-10T15:18:05.612Z,2.53
2023-05-10T15:20:36.134Z,2.22
2023-05-10T15:23:04.026Z,2.38
2023-05-10T15:25:32.227Z,2.28
2023-05-10T15:28:00.157Z,2.42
2023-05-10T15:30:28.050Z,2.53
2023-05-10T15:32:56.016Z,2.40
2023-05-10T15:35:23.959Z,2.45
2023-05-10T15:37:53.174Z,2.38
2023-05-10T15:40:21.210Z,2.65
2023-05-10T15:42:49.204Z,2.60
2023-05-10T15:45:17.592Z,2.80
2023-05-10T15:47:46.489Z,2.70
2023-05-10T15:50:14.532Z,2.30
2023-05-10T15:52:42.472Z,2.55
2023-05-10T15:55:13.206Z,2.60
2023-05-10T15:57:41.439Z,2.60
2023-05-10T16:00:11.026Z,2.92
2023-05-10T16:02:42.190Z,2.35
2023-05-10T16:05:10.930Z,2.47
2023-05-10T16:07:39.813Z,2.47
2023-05-10T16:10:09.896Z,2.08
2023-05-10T16:12:39.884Z,2.67
2023-05-10T16:15:10.395Z,2.35
2023-05-10T16:17:38.403Z,2.35
2023-05-10T16:20:07.643Z,2.45
2023-05-10T16:22:35.898Z,2.60
2023-05-10T16:25:04.782Z,3.38
2023-05-10T16:27:33.666Z,2.95
2023-05-10T16:30:03.342Z,2.80
2023-05-10T16:32:31.258Z,3.28
2023-05-10T16:35:00.475Z,3.10
2023-05-10T16:37:29.052Z,3.33
2023-05-10T16:39:57.073Z,3.30
2023-05-10T16:42:26.070Z,2.95
2023-05-10T16:44:54.961Z,3.15
2023-05-10T16:47:26.850Z,3.20
2023-05-10T16:49:54.963Z,2.90
2023-05-10T16:52:24.069Z,2.90
2023-05-10T16:54:52.669Z,2.85
2023-05-10T16:57:20.682Z,3.30
2023-05-10T16:59:48.636Z,2.95
2023-05-10T17:02:17.070Z,2.95
2023-05-10T17:04:46.492Z,3.10
2023-05-10T17:07:14.360Z,3.40
2023-05-10T17:09:43.227Z,3.00
2023-05-10T17:12:11.164Z,3.25
2023-05-10T17:14:40.001Z,3.17
2023-05-10T17:17:08.166Z,3.10
2023-05-10T17:19:36.264Z,3.13
2023-05-10T17:22:05.529Z,3.15
2023-05-10T17:24:36.501Z,2.67
2023-05-10T17:27:04.513Z,3.70
2023-05-10T17:29:32.612Z,3.30
2023-05-10T17:32:00.813Z,3.80
2023-05-10T17:34:28.918Z,3.10
2023-05-10T17:36:56.789Z,3.50
2023-05-10T17:39:26.044Z,3.00
2023-05-10T17:41:54.015Z,3.35
2023-05-10T17:44:22.187Z,3.10
2023-05-10T17:46:50.094Z,3.45
2023-05-10T17:49:18.255Z,3.17
2023-05-10T17:51:48.158Z,3.70
2023-05-10T17:54:16.222Z,4.10
2023-05-10T17:56:45.443Z,3.95
2023-05-10T17:59:13.440Z,3.97
2023-05-10T18:01:41.561Z,4.30
2023-05-10T18:04:09.660Z,4.65
2023-05-10T18:06:38.260Z,4.93
2023-05-10T18:09:07.385Z,4.57
2023-05-10T18:11:36.116Z,5.15
2023-05-10T18:14:06.413Z,4.75
2023-05-10T18:16:34.539Z,5.03
2023-05-10T18:19:02.669Z,4.88
2023-05-10T18:21:31.366Z,5.13
2023-05-10T18:23:59.305Z,5.43
2023-05-10T18:26:27.788Z,5.78
2023-05-10T18:28:55.764Z,5.95
2023-05-10T18:31:27.388Z,5.18
2023-05-10T18:33:55.417Z,5.70
2023-05-10T18:36:24.251Z,5.78
2023-05-10T18:38:55.088Z,5.55
2023-05-10T18:41:22.990Z,6.70
2023-05-10T18:43:51.024Z,6.15
2023-05-10T18:46:19.095Z,6.38
2023-05-10T18:48:48.389Z,5.90
2023-05-10T18:51:16.543Z,5.78
2023-05-10T18:53:44.426Z,5.88
2023-05-10T18:56:12.763Z,6.13
2023-05-10T18:58:41.032Z,6.07
2023-05-10T19:01:09.071Z,6.13
2023-05-10T19:03:37.153Z,6.25
2023-05-10T19:06:06.648Z,6.20
2023-05-10T19:08:34.586Z,6.43
2023-05-10T19:11:03.423Z,6.63
2023-05-10T19:13:31.303Z,6.50
2023-05-10T19:16:05.807Z,6.43
2023-05-10T19:18:34.088Z,6.35
2023-05-10T19:21:04.625Z,7.13
2023-05-10T19:23:34.393Z,6.10
2023-05-10T19:26:02.318Z,6.15
2023-05-10T19:28:30.792Z,6.35
2023-05-10T19:30:58.873Z,6.45
2023-05-10T19:33:26.802Z,6.07
2023-05-10T19:35:55.680Z,6.40
2023-05-10T19:38:23.992Z,6.40
2023-05-10T19:40:58.259Z,6.05
2023-05-10T19:43:26.519Z,6.57
2023-05-10T19:45:55.251Z,6.60
2023-05-10T19:48:23.226Z,6.40
2023-05-10T19:50:51.777Z,7.13
2023-05-10T19:53:19.737Z,7.10
2023-05-10T19:55:47.719Z,6.72
2023-05-10T19:58:17.897Z,6.80
2023-05-10T20:00:46.115Z,7.03
2023-05-10T20:03:14.156Z,6.18
2023-05-10T20:05:42.130Z,6.45
2023-05-10T20:08:10.057Z,6.32
2023-05-10T20:10:38.015Z,5.93
2023-05-10T20:13:05.999Z,6.47
2023-05-10T20:15:35.339Z,6.15
2023-05-10T20:18:03.739Z,5.90
2023-05-10T20:20:31.818Z,6.05
2023-05-10T20:22:59.825Z,6.40
2023-05-10T20:25:28.067Z,6.30
2023-05-10T20:27:56.020Z,6.10
2023-05-10T20:30:24.120Z,6.22
2023-05-10T20:32:53.527Z,7.50
2023-05-10T20:35:21.524Z,6.20
2023-05-10T20:37:49.416Z,6.88
2023-05-10T20:40:17.604Z,6.35
2023-05-10T20:42:45.934Z,6.35
2023-05-10T20:45:13.879Z,5.95
2023-05-10T20:47:42.609Z,5.85
2023-05-10T20:50:12.514Z,6.03
2023-05-10T20:52:40.497Z,6.32
2023-05-10T20:55:09.652Z,6.18
2023-05-10T20:57:37.867Z,5.82
2023-05-10T21:00:07.075Z,5.82
2023-05-10T21:02:35.133Z,6.05
2023-05-10T21:05:03.251Z,6.40
2023-05-10T21:07:32.901Z,6.25
2023-05-10T21:10:00.793Z,6.13
2023-05-10T21:12:28.741Z,5.75
2023-05-10T21:14:56.632Z,6.53
2023-05-10T21:17:24.531Z,6.10
2023-05-10T21:19:52.635Z,7.57
2023-05-10T21:22:20.511Z,7.20
2023-05-10T21:24:50.018Z,7.35
2023-05-10T21:27:18.225Z,7.35
2023-05-10T21:29:46.070Z,6.78
2023-05-10T21:32:14.982Z,7.05
2023-05-10T21:34:42.993Z,6.68
2023-05-10T21:37:11.039Z,6.78
2023-05-10T21:39:38.934Z,7.20
2023-05-10T21:42:08.196Z,6.03
2023-05-10T21:44:37.175Z,6.70
2023-05-10T21:47:05.483Z,7.13
2023-05-10T21:49:33.448Z,7.10
2023-05-10T21:52:01.685Z,6.78
2023-05-10T21:54:29.941Z,7.40
2023-05-10T21:56:57.825Z,6.85
2023-05-10T21:59:27.181Z,6.72
2023-05-10T22:01:55.252Z,7.30
2023-05-10T22:04:23.112Z,7.25
2023-05-10T22:06:50.990Z,7.53
2023-05-10T22:09:19.865Z,6.57
2023-05-10T22:11:48.706Z,7.10
2023-05-10T22:14:16.595Z,7.00
2023-05-10T22:16:45.920Z,7.20
2023-05-10T22:19:13.931Z,7.63
2023-05-10T22:21:41.777Z,7.65
2023-05-10T22:24:09.853Z,7.65
2023-05-10T22:26:38.251Z,8.30
2023-05-10T22:29:06.123Z,7.90
2023-05-10T22:31:34.168Z,8.25
2023-05-10T22:34:03.523Z,7.88
2023-05-10T22:36:31.638Z,7.78
2023-05-10T22:38:59.548Z,7.82
2023-05-10T22:41:27.431Z,8.50
2023-05-10T22:43:55.316Z,8.70
2023-05-10T22:46:23.236Z,7.63
2023-05-10T22:48:51.120Z,7.95
2023-05-10T22:51:21.215Z,7.70
2023-05-10T22:53:49.124Z,8.27
2023-05-10T22:56:17.142Z,8.10
2023-05-10T22:58:45.112Z,8.10
2023-05-10T23:01:12.982Z,7.38
2023-05-10T23:03:40.891Z,7.25
2023-05-10T23:06:08.897Z,8.25
2023-05-10T23:08:38.132Z,8.48
2023-05-10T23:11:06.113Z,7.53
2023-05-10T23:13:33.991Z,7.65
2023-05-10T23:16:06.272Z,8.15
2023-05-10T23:18:34.421Z,9.43
2023-05-10T23:21:02.419Z,8.13
2023-05-10T23:23:31.081Z,8.00
2023-05-10T23:26:00.532Z,7.80
2023-05-10T23:28:28.436Z,7.60
2023-05-10T23:30:56.724Z,7.72
2023-05-10T23:33:25.182Z,7.55
2023-05-10T23:35:53.114Z,7.72
2023-05-10T23:38:21.019Z,9.40
2023-05-10T23:40:50.217Z,8.23
2023-05-10T23:43:20.149Z,7.25
2023-05-10T23:45:53.919Z,8.27
2023-05-10T23:48:21.940Z,7.35
2023-05-10T23:50:50.082Z,7.53
2023-05-10T23:53:18.413Z,7.20
2023-05-10T23:55:46.643Z,8.07
2023-05-10T23:58:14.538Z,6.82
